createdAt,value
2019-02-02T00:00:34.781Z,18.46
2019-02-02T00:01:36.017Z,18.46
2019-02-02T00:02:37.144Z,18.52
2019-02-02T00:03:38.366Z,18.57
2019-02-02T00:04:39.497Z,18.59
2019-02-02T00:05:40.620Z,18.63
2019-02-02T00:06:41.764Z,18.61
2019-02-02T00:07:42.883Z,18.61
2019-02-02T00:08:44.210Z,18.67
2019-02-02T00:09:45.331Z,18.67
2019-02-02T00:10:46.488Z,18.75
2019-02-02T00:11:47.613Z,18.75
2019-02-02T00:12:48.738Z,18.78
2019-02-02T00:13:49.845Z,18.84
2019-02-02T00:14:50.972Z,18.85
2019-02-02T00:15:52.093Z,18.88
2019-02-02T00:16:53.336Z,18.93
2019-02-02T00:17:54.961Z,18.93
2019-02-02T00:18:56.081Z,18.91
2019-02-02T00:19:57.207Z,18.93
2019-02-02T00:20:58.321Z,19.03
2019-02-02T00:21:59.490Z,18.99
2019-02-02T00:23:00.613Z,18.98
2019-02-02T00:24:01.844Z,19.04
2019-02-02T00:25:04.668Z,19.09
2019-02-02T00:26:05.894Z,19.07
2019-02-02T00:27:07.043Z,19.08
2019-02-02T00:28:08.157Z,19.16
2019-02-02T00:29:09.580Z,19.15
2019-02-02T00:30:15.348Z,19.19
2019-02-02T00:31:16.472Z,19.19
2019-02-02T00:32:17.613Z,19.22
2019-02-02T00:33:18.737Z,19.25
2019-02-02T00:34:19.859Z,19.35
2019-02-02T00:35:20.980Z,19.36
2019-02-02T00:36:22.103Z,19.39
2019-02-02T00:37:23.248Z,19.36
2019-02-02T00:38:24.380Z,19.36
2019-02-02T00:39:25.506Z,19.41
2019-02-02T00:40:26.624Z,19.41
2019-02-02T00:41:27.756Z,19.46
2019-02-02T00:42:28.992Z,19.51
2019-02-02T00:43:30.106Z,19.50
2019-02-02T00:44:31.428Z,19.49
2019-02-02T00:45:32.557Z,19.52
2019-02-02T00:46:33.685Z,19.52
2019-02-02T00:47:34.908Z,19.56
2019-02-02T00:48:36.136Z,19.57
2019-02-02T00:49:37.256Z,19.58
2019-02-02T00:50:38.387Z,19.60
2019-02-02T00:51:39.511Z,19.62
2019-02-02T00:52:40.767Z,19.67
2019-02-02T00:53:41.888Z,19.67
2019-02-02T00:54:43.000Z,19.67
2019-02-02T00:55:44.276Z,19.69
2019-02-02T00:56:45.404Z,19.68
2019-02-02T00:57:53.521Z,19.68
2019-02-02T00:58:49.760Z,19.76
2019-02-02T00:59:50.872Z,19.77
2019-02-02T01:00:52.083Z,19.81
2019-02-02T01:01:53.192Z,19.85
2019-02-02T01:02:54.752Z,19.81
2019-02-02T01:03:55.873Z,19.81
2019-02-02T01:04:56.984Z,19.88
2019-02-02T01:05:58.110Z,19.86
2019-02-02T01:06:59.230Z,19.88
2019-02-02T01:08:00.384Z,19.88
2019-02-02T01:09:03.412Z,19.93
2019-02-02T01:10:13.728Z,19.89
2019-02-02T01:11:14.884Z,19.91
2019-02-02T01:12:16.110Z,19.97
2019-02-02T01:13:17.239Z,19.98
2019-02-02T01:14:18.357Z,20.04
2019-02-02T01:15:19.472Z,20.06
2019-02-02T01:16:20.695Z,20.04
2019-02-02T01:17:21.929Z,20.03
2019-02-02T01:18:23.090Z,20.06
2019-02-02T01:19:24.308Z,20.07
2019-02-02T01:20:25.433Z,20.07
2019-02-02T01:21:26.559Z,20.12
2019-02-02T01:22:27.676Z,20.13
2019-02-02T01:23:28.816Z,20.08
2019-02-02T01:24:30.066Z,20.15
2019-02-02T01:25:31.364Z,20.19
2019-02-02T01:26:32.485Z,20.16
2019-02-02T01:27:33.608Z,20.18
2019-02-02T01:28:34.863Z,20.18
2019-02-02T01:29:35.984Z,20.21
2019-02-02T01:30:37.206Z,20.21
2019-02-02T01:31:38.435Z,20.27
2019-02-02T01:32:39.566Z,20.25
2019-02-02T01:33:40.716Z,20.32
2019-02-02T01:34:41.831Z,20.29
2019-02-02T01:35:42.951Z,20.28
2019-02-02T01:36:44.079Z,20.38
2019-02-02T01:37:45.202Z,20.39
2019-02-02T01:38:46.345Z,20.37
2019-02-02T01:39:47.456Z,20.38
2019-02-02T01:40:48.666Z,20.37
2019-02-02T01:41:49.784Z,20.37
2019-02-02T01:42:51.003Z,20.40
2019-02-02T01:43:52.137Z,20.43
2019-02-02T01:44:53.254Z,20.41
2019-02-02T01:45:54.376Z,20.39
2019-02-02T01:46:55.496Z,20.38
2019-02-02T01:47:56.817Z,20.38
2019-02-02T01:48:57.953Z,20.38
2019-02-02T01:49:59.083Z,20.41
2019-02-02T01:51:00.214Z,20.40
2019-02-02T01:52:01.333Z,20.46
2019-02-02T01:53:02.557Z,20.42
2019-02-02T01:54:03.724Z,20.46
2019-02-02T01:55:07.050Z,20.46
2019-02-02T01:56:08.264Z,20.43
2019-02-02T01:57:09.428Z,20.42
2019-02-02T01:58:16.863Z,20.42
2019-02-02T01:59:13.553Z,20.46
2019-02-02T02:00:17.880Z,20.55
2019-02-02T02:01:19.003Z,20.53
2019-02-02T02:02:20.124Z,20.55
2019-02-02T02:03:21.556Z,20.55
2019-02-02T02:04:22.801Z,20.53
2019-02-02T02:05:23.920Z,20.56
2019-02-02T02:06:25.047Z,20.62
2019-02-02T02:07:26.169Z,20.62
2019-02-02T02:08:27.294Z,20.65
2019-02-02T02:09:28.429Z,20.63
2019-02-02T02:10:29.559Z,20.62
2019-02-02T02:11:30.721Z,20.59
2019-02-02T02:12:31.835Z,20.64
2019-02-02T02:13:32.956Z,20.60
2019-02-02T02:14:34.086Z,20.62
2019-02-02T02:15:35.212Z,20.64
2019-02-02T02:16:36.447Z,20.65
2019-02-02T02:17:37.564Z,20.60
2019-02-02T02:18:38.685Z,20.71
2019-02-02T02:19:39.849Z,20.67
2019-02-02T02:20:40.977Z,20.67
2019-02-02T02:21:42.103Z,20.73
2019-02-02T02:22:43.726Z,20.77
2019-02-02T02:23:44.857Z,20.72
2019-02-02T02:24:45.996Z,20.76
2019-02-02T02:25:47.120Z,20.71
2019-02-02T02:26:48.235Z,20.73
2019-02-02T02:27:49.355Z,20.75
2019-02-02T02:28:50.479Z,20.74
2019-02-02T02:29:51.617Z,20.72
2019-02-02T02:30:52.748Z,20.67
2019-02-02T02:31:53.853Z,20.71
2019-02-02T02:32:54.963Z,20.66
2019-02-02T02:33:56.099Z,20.69
2019-02-02T02:34:57.249Z,20.69
2019-02-02T02:35:58.384Z,20.72
2019-02-02T02:36:59.520Z,20.71
2019-02-02T02:38:00.648Z,20.69
2019-02-02T02:39:01.874Z,20.71
2019-02-02T02:40:08.881Z,20.75
2019-02-02T02:41:10.007Z,20.76
2019-02-02T02:42:11.124Z,20.77
2019-02-02T02:43:12.233Z,20.81
2019-02-02T02:44:13.353Z,20.79
2019-02-02T02:45:14.702Z,20.79
2019-02-02T02:46:15.832Z,20.83
2019-02-02T02:47:16.950Z,20.84
2019-02-02T02:48:18.064Z,20.83
2019-02-02T02:49:19.188Z,20.81
2019-02-02T02:50:21.018Z,20.84
2019-02-02T02:51:22.140Z,20.83
2019-02-02T02:52:23.255Z,20.80
2019-02-02T02:53:24.481Z,20.89
2019-02-02T02:54:25.615Z,20.86
2019-02-02T02:55:26.781Z,20.82
2019-02-02T02:56:27.917Z,20.88
2019-02-02T02:57:29.037Z,20.84
2019-02-02T02:58:41.105Z,20.80
2019-02-02T02:59:33.191Z,20.88
2019-02-02T03:00:34.457Z,20.89
2019-02-02T03:01:35.585Z,20.87
2019-02-02T03:02:36.704Z,20.81
2019-02-02T03:03:37.828Z,20.78
2019-02-02T03:04:38.940Z,20.87
2019-02-02T03:05:40.079Z,20.88
2019-02-02T03:06:41.200Z,20.87
2019-02-02T03:07:42.409Z,20.86
2019-02-02T03:08:43.535Z,20.87
2019-02-02T03:09:44.661Z,20.89
2019-02-02T03:10:45.797Z,20.94
2019-02-02T03:11:46.959Z,20.89
2019-02-02T03:12:48.286Z,20.90
2019-02-02T03:13:49.407Z,20.92
2019-02-02T03:14:50.517Z,20.95
2019-02-02T03:15:51.663Z,20.90
2019-02-02T03:16:52.886Z,20.97
2019-02-02T03:17:54.111Z,20.93
2019-02-02T03:18:55.237Z,20.95
2019-02-02T03:19:56.352Z,20.91
2019-02-02T03:20:57.606Z,20.87
2019-02-02T03:21:58.737Z,20.90
2019-02-02T03:22:59.854Z,20.92
2019-02-02T03:24:00.971Z,20.91
2019-02-02T03:25:03.192Z,20.95
2019-02-02T03:26:04.325Z,20.95
2019-02-02T03:27:05.460Z,20.99
2019-02-02T03:28:06.572Z,20.93
2019-02-02T03:29:07.701Z,20.97
2019-02-02T03:30:17.331Z,20.98
2019-02-02T03:31:18.565Z,20.92
2019-02-02T03:32:19.674Z,20.90
2019-02-02T03:33:20.802Z,20.91
2019-02-02T03:34:21.928Z,20.94
2019-02-02T03:35:23.049Z,20.94
2019-02-02T03:36:24.286Z,20.92
2019-02-02T03:37:25.446Z,20.93
2019-02-02T03:38:26.579Z,20.98
2019-02-02T03:39:27.692Z,20.97
2019-02-02T03:40:28.816Z,21.01
2019-02-02T03:41:29.949Z,21.01
2019-02-02T03:42:31.075Z,21.02
2019-02-02T03:43:32.309Z,21.00
2019-02-02T03:44:33.436Z,21.05
2019-02-02T03:45:34.560Z,21.03
2019-02-02T03:46:35.721Z,21.05
2019-02-02T03:47:36.848Z,21.00
2019-02-02T03:48:37.978Z,21.03
2019-02-02T03:49:39.107Z,20.98
2019-02-02T03:50:40.224Z,21.00
2019-02-02T03:51:41.385Z,21.07
2019-02-02T03:52:42.602Z,21.06
2019-02-02T03:53:43.716Z,21.00
2019-02-02T03:54:44.844Z,21.00
2019-02-02T03:55:46.056Z,20.97
2019-02-02T03:56:47.187Z,21.06
2019-02-02T03:57:48.309Z,20.98
2019-02-02T03:58:49.430Z,21.00
2019-02-02T03:59:50.557Z,21.06
2019-02-02T04:00:51.690Z,20.99
2019-02-02T04:01:52.844Z,21.08
2019-02-02T04:02:54.069Z,21.00
2019-02-02T04:03:55.499Z,21.02
2019-02-02T04:04:56.633Z,21.00
2019-02-02T04:05:57.865Z,20.98
2019-02-02T04:06:59.035Z,20.99
2019-02-02T04:08:00.164Z,21.02
2019-02-02T04:09:01.288Z,20.96
2019-02-02T04:10:05.615Z,20.97
2019-02-02T04:11:06.734Z,21.07
2019-02-02T04:12:07.900Z,21.07
2019-02-02T04:13:09.028Z,21.07
2019-02-02T04:14:10.250Z,21.08
2019-02-02T04:15:13.891Z,21.09
2019-02-02T04:16:15.002Z,21.10
2019-02-02T04:17:16.122Z,21.06
2019-02-02T04:18:17.244Z,21.04
2019-02-02T04:19:18.373Z,21.03
2019-02-02T04:20:23.258Z,21.06
2019-02-02T04:21:24.491Z,21.03
2019-02-02T04:22:25.629Z,21.06
2019-02-02T04:23:26.753Z,21.11
2019-02-02T04:24:27.878Z,21.09
2019-02-02T04:25:29.003Z,21.07
2019-02-02T04:26:30.232Z,21.08
2019-02-02T04:27:31.375Z,21.04
2019-02-02T04:28:32.501Z,21.07
2019-02-02T04:29:33.628Z,21.04
2019-02-02T04:30:34.749Z,21.08
2019-02-02T04:31:35.873Z,21.11
2019-02-02T04:32:37.020Z,21.12
2019-02-02T04:33:38.136Z,21.11
2019-02-02T04:34:39.260Z,21.11
2019-02-02T04:35:40.385Z,21.10
2019-02-02T04:36:41.512Z,21.12
2019-02-02T04:37:42.746Z,21.08
2019-02-02T04:38:43.873Z,21.10
2019-02-02T04:39:44.996Z,21.15
2019-02-02T04:40:46.128Z,21.13
2019-02-02T04:41:47.245Z,21.13
2019-02-02T04:42:48.407Z,21.14
2019-02-02T04:43:49.529Z,21.16
2019-02-02T04:44:50.658Z,21.11
2019-02-02T04:45:51.880Z,21.11
2019-02-02T04:46:53.115Z,21.07
2019-02-02T04:47:54.285Z,21.04
2019-02-02T04:48:55.413Z,21.02
2019-02-02T04:49:56.639Z,21.02
2019-02-02T04:50:57.773Z,21.02
2019-02-02T04:51:58.900Z,21.08
2019-02-02T04:53:00.134Z,21.04
2019-02-02T04:54:01.367Z,21.07
2019-02-02T04:55:03.591Z,21.06
2019-02-02T04:56:04.819Z,21.13
2019-02-02T04:57:05.945Z,21.15
2019-02-02T04:58:07.080Z,21.14
2019-02-02T04:59:08.205Z,21.11
2019-02-02T05:00:15.956Z,21.12
2019-02-02T05:01:17.083Z,21.14
2019-02-02T05:02:18.320Z,21.14
2019-02-02T05:03:19.479Z,21.15
2019-02-02T05:04:20.602Z,21.15
2019-02-02T05:05:21.827Z,21.18
2019-02-02T05:06:22.950Z,21.22
2019-02-02T05:07:24.077Z,21.15
2019-02-02T05:08:25.236Z,21.13
2019-02-02T05:09:26.366Z,21.19
2019-02-02T05:10:27.481Z,21.21
2019-02-02T05:11:28.594Z,21.18
2019-02-02T05:12:29.737Z,21.21
2019-02-02T05:13:30.878Z,21.23
2019-02-02T05:14:32.000Z,21.29
2019-02-02T05:15:33.129Z,21.26
2019-02-02T05:16:34.345Z,21.23
2019-02-02T05:17:35.470Z,21.27
2019-02-02T05:18:36.604Z,21.35
2019-02-02T05:19:37.735Z,21.32
2019-02-02T05:20:38.861Z,21.33
2019-02-02T05:21:40.085Z,21.34
2019-02-02T05:22:41.308Z,21.35
2019-02-02T05:23:42.445Z,21.36
2019-02-02T05:24:43.570Z,21.40
2019-02-02T05:25:44.701Z,21.35
2019-02-02T05:26:45.812Z,21.41
2019-02-02T05:27:46.934Z,21.32
2019-02-02T05:28:50.407Z,21.36
2019-02-02T05:29:51.536Z,21.39
2019-02-02T05:30:52.760Z,21.36
2019-02-02T05:31:53.887Z,21.31
2019-02-02T05:32:55.012Z,21.36
2019-02-02T05:33:56.177Z,21.32
2019-02-02T05:34:57.293Z,21.33
2019-02-02T05:35:58.412Z,21.32
2019-02-02T05:36:59.605Z,21.32
2019-02-02T05:38:00.728Z,21.31
2019-02-02T05:39:03.958Z,21.31
2019-02-02T05:40:08.685Z,21.37
2019-02-02T05:41:09.905Z,21.38
2019-02-02T05:42:11.044Z,21.36
2019-02-02T05:43:12.163Z,21.39
2019-02-02T05:44:13.494Z,21.38
2019-02-02T05:45:20.449Z,21.37
2019-02-02T05:46:21.681Z,21.35
2019-02-02T05:47:22.809Z,21.34
2019-02-02T05:48:23.939Z,21.34
2019-02-02T05:49:25.087Z,21.37
2019-02-02T05:50:26.203Z,21.31
2019-02-02T05:51:27.334Z,21.31
2019-02-02T05:52:28.465Z,21.31
2019-02-02T05:53:29.588Z,21.37
2019-02-02T05:54:30.724Z,21.37
2019-02-02T05:55:31.949Z,21.33
2019-02-02T05:56:33.069Z,21.41
2019-02-02T05:57:34.184Z,21.42
2019-02-02T05:58:35.401Z,21.37
2019-02-02T05:59:37.036Z,21.34
2019-02-02T06:00:42.883Z,21.33
2019-02-02T06:01:44.017Z,21.35
2019-02-02T06:02:45.142Z,21.33
2019-02-02T06:03:46.369Z,21.32
2019-02-02T06:04:47.678Z,21.36
2019-02-02T06:05:48.894Z,21.38
2019-02-02T06:06:50.125Z,21.36
2019-02-02T06:07:51.254Z,21.35
2019-02-02T06:08:52.382Z,21.34
2019-02-02T06:09:53.549Z,21.35
2019-02-02T06:10:54.679Z,21.32
2019-02-02T06:11:55.802Z,21.31
2019-02-02T06:12:56.973Z,21.34
2019-02-02T06:13:58.110Z,21.36
2019-02-02T06:14:59.250Z,21.38
2019-02-02T06:16:00.375Z,21.41
2019-02-02T06:17:01.498Z,21.36
2019-02-02T06:18:03.129Z,21.39
2019-02-02T06:19:04.249Z,21.45
2019-02-02T06:20:08.794Z,21.39
2019-02-02T06:21:09.907Z,21.37
2019-02-02T06:22:11.033Z,21.41
2019-02-02T06:23:12.162Z,21.37
2019-02-02T06:24:13.288Z,21.37
2019-02-02T06:25:14.831Z,21.40
2019-02-02T06:26:15.951Z,21.46
2019-02-02T06:27:17.179Z,21.42
2019-02-02T06:28:18.298Z,21.38
2019-02-02T06:29:19.583Z,21.32
2019-02-02T06:30:23.793Z,21.32
2019-02-02T06:31:25.026Z,21.35
2019-02-02T06:32:26.154Z,21.42
2019-02-02T06:33:27.384Z,21.43
2019-02-02T06:34:28.510Z,21.38
2019-02-02T06:35:29.677Z,21.36
2019-02-02T06:36:30.807Z,21.43
2019-02-02T06:37:31.937Z,21.46
2019-02-02T06:38:33.071Z,21.47
2019-02-02T06:39:34.198Z,21.46
2019-02-02T06:40:35.483Z,21.42
2019-02-02T06:41:36.589Z,21.41
2019-02-02T06:42:37.813Z,21.40
2019-02-02T06:43:38.937Z,21.43
2019-02-02T06:44:40.066Z,21.44
2019-02-02T06:45:41.307Z,21.49
2019-02-02T06:46:43.668Z,21.42
2019-02-02T06:47:45.151Z,21.44
2019-02-02T06:48:46.278Z,21.42
2019-02-02T06:49:47.410Z,21.47
2019-02-02T06:50:48.551Z,21.45
2019-02-02T06:51:49.677Z,21.49
2019-02-02T06:52:50.794Z,21.50
2019-02-02T06:53:51.911Z,21.45
2019-02-02T06:54:53.032Z,21.45
2019-02-02T06:55:54.261Z,21.47
2019-02-02T06:56:55.486Z,21.52
2019-02-02T06:57:56.614Z,21.53
2019-02-02T06:58:57.744Z,21.50
2019-02-02T06:59:58.984Z,21.47
2019-02-02T07:01:00.118Z,21.47
2019-02-02T07:02:01.346Z,21.50
2019-02-02T07:03:02.474Z,21.46
2019-02-02T07:04:03.758Z,21.45
2019-02-02T07:05:05.411Z,21.49
2019-02-02T07:06:06.544Z,21.54
2019-02-02T07:07:07.667Z,21.54
2019-02-02T07:08:08.794Z,21.55
2019-02-02T07:09:09.922Z,21.52
2019-02-02T07:10:17.570Z,21.52
2019-02-02T07:11:18.725Z,21.57
2019-02-02T07:12:19.957Z,21.53
2019-02-02T07:13:21.123Z,21.55
2019-02-02T07:14:22.248Z,21.48
2019-02-02T07:15:28.039Z,21.46
2019-02-02T07:16:29.174Z,21.44
2019-02-02T07:17:30.291Z,21.38
2019-02-02T07:18:31.521Z,21.34
2019-02-02T07:19:32.740Z,21.29
2019-02-02T07:20:33.871Z,21.25
2019-02-02T07:21:34.980Z,21.19
2019-02-02T07:22:36.107Z,21.14
2019-02-02T07:23:37.221Z,21.05
2019-02-02T07:24:38.351Z,21.03
2019-02-02T07:25:39.464Z,20.99
2019-02-02T07:26:40.601Z,20.93
2019-02-02T07:27:41.822Z,20.90
2019-02-02T07:28:42.946Z,20.84
2019-02-02T07:29:44.181Z,20.74
2019-02-02T07:30:45.305Z,20.62
2019-02-02T07:31:46.448Z,20.54
2019-02-02T07:32:47.564Z,20.49
2019-02-02T07:33:48.700Z,20.41
2019-02-02T07:34:49.817Z,20.38
2019-02-02T07:35:53.883Z,20.33
2019-02-02T07:36:54.089Z,20.20
2019-02-02T07:37:55.310Z,20.17
2019-02-02T07:38:56.438Z,20.11
2019-02-02T07:39:57.565Z,20.05
2019-02-02T07:40:58.799Z,19.98
2019-02-02T07:41:59.937Z,19.91
2019-02-02T07:43:01.046Z,19.87
2019-02-02T07:44:02.372Z,19.82
2019-02-02T07:45:09.781Z,19.65
2019-02-02T07:46:14.911Z,19.65
2019-02-02T07:47:14.053Z,19.62
2019-02-02T07:48:15.164Z,19.48
2019-02-02T07:49:16.400Z,19.48
2019-02-02T07:50:17.524Z,19.43
2019-02-02T07:51:18.761Z,19.37
2019-02-02T07:52:21.143Z,19.37
2019-02-02T07:53:22.465Z,19.33
2019-02-02T07:54:23.588Z,19.34
2019-02-02T07:55:24.701Z,19.27
2019-02-02T07:56:25.830Z,19.29
2019-02-02T07:57:26.989Z,19.31
2019-02-02T07:58:28.122Z,19.26
2019-02-02T07:59:29.252Z,19.26
2019-02-02T08:00:40.690Z,19.24
2019-02-02T08:01:38.173Z,19.26
2019-02-02T08:02:39.294Z,19.22
2019-02-02T08:03:40.551Z,19.16
2019-02-02T08:04:41.678Z,19.12
2019-02-02T08:05:42.801Z,19.15
2019-02-02T08:06:46.205Z,19.13
2019-02-02T08:07:46.992Z,19.09
2019-02-02T08:08:48.124Z,19.04
2019-02-02T08:09:49.255Z,19.05
2019-02-02T08:10:50.378Z,19.09
2019-02-02T08:11:51.501Z,19.05
2019-02-02T08:12:52.640Z,19.04
2019-02-02T08:13:53.887Z,19.03
2019-02-02T08:14:55.005Z,18.99
2019-02-02T08:15:56.130Z,18.99
2019-02-02T08:16:57.258Z,18.95
2019-02-02T08:17:58.381Z,18.96
2019-02-02T08:18:59.510Z,18.97
2019-02-02T08:20:00.631Z,18.90
2019-02-02T08:21:01.754Z,18.94
2019-02-02T08:22:03.183Z,18.88
2019-02-02T08:23:04.346Z,18.89
2019-02-02T08:24:05.474Z,18.85
2019-02-02T08:25:09.486Z,18.90
2019-02-02T08:26:10.709Z,18.83
2019-02-02T08:27:11.827Z,18.79
2019-02-02T08:28:12.986Z,18.81
2019-02-02T08:29:14.106Z,18.74
2019-02-02T08:30:17.333Z,18.75
2019-02-02T08:31:18.465Z,18.75
2019-02-02T08:32:19.597Z,18.76
2019-02-02T08:33:20.743Z,18.72
2019-02-02T08:34:21.857Z,18.70
2019-02-02T08:35:23.177Z,18.71
2019-02-02T08:36:24.394Z,18.65
2019-02-02T08:37:25.625Z,18.62
2019-02-02T08:38:26.766Z,18.62
2019-02-02T08:39:29.521Z,18.65
2019-02-02T08:40:30.938Z,18.73
2019-02-02T08:41:32.162Z,18.75
2019-02-02T08:42:33.280Z,18.73
2019-02-02T08:43:34.587Z,18.72
2019-02-02T08:44:35.709Z,18.72
2019-02-02T08:45:36.941Z,18.71
2019-02-02T08:46:38.064Z,18.66
2019-02-02T08:47:39.285Z,18.68
2019-02-02T08:48:40.423Z,18.67
2019-02-02T08:49:41.553Z,18.64
2019-02-02T08:50:42.783Z,18.60
2019-02-02T08:51:43.915Z,18.62
2019-02-02T08:52:45.262Z,18.62
2019-02-02T08:53:46.457Z,18.60
2019-02-02T08:54:47.635Z,18.54
2019-02-02T08:55:51.897Z,18.54
2019-02-02T08:56:52.009Z,18.51
2019-02-02T08:57:53.251Z,18.51
2019-02-02T08:58:54.480Z,18.49
2019-02-02T08:59:55.605Z,18.52
2019-02-02T09:01:03.739Z,18.51
2019-02-02T09:01:59.870Z,18.55
2019-02-02T09:03:01.001Z,18.52
2019-02-02T09:04:02.233Z,18.59
2019-02-02T09:05:05.460Z,18.55
2019-02-02T09:06:06.679Z,18.57
2019-02-02T09:07:07.909Z,18.59
2019-02-02T09:08:09.139Z,18.55
2019-02-02T09:09:10.663Z,18.54
2019-02-02T09:10:14.078Z,18.52
2019-02-02T09:11:15.304Z,18.51
2019-02-02T09:12:16.493Z,18.50
2019-02-02T09:13:17.641Z,18.54
2019-02-02T09:14:18.945Z,18.54
2019-02-02T09:15:20.053Z,18.55
2019-02-02T09:16:21.280Z,18.54
2019-02-02T09:17:22.532Z,18.52
2019-02-02T09:18:23.640Z,18.55
2019-02-02T09:19:24.778Z,18.54
2019-02-02T09:20:25.901Z,18.56
2019-02-02T09:21:27.129Z,18.57
2019-02-02T09:22:28.254Z,18.57
2019-02-02T09:23:29.376Z,18.55
2019-02-02T09:24:30.530Z,18.58
2019-02-02T09:25:31.657Z,18.62
2019-02-02T09:26:32.872Z,18.63
2019-02-02T09:27:34.002Z,18.67
2019-02-02T09:28:35.130Z,18.67
2019-02-02T09:29:36.270Z,18.70
2019-02-02T09:30:37.485Z,18.71
2019-02-02T09:31:38.702Z,18.66
2019-02-02T09:32:39.824Z,18.70
2019-02-02T09:33:40.975Z,18.74
2019-02-02T09:34:42.102Z,18.78
2019-02-02T09:35:43.270Z,18.81
2019-02-02T09:36:44.365Z,18.76
2019-02-02T09:37:45.594Z,18.81
2019-02-02T09:38:46.728Z,18.76
2019-02-02T09:39:48.105Z,18.73
2019-02-02T09:40:49.409Z,18.76
2019-02-02T09:41:50.538Z,18.78
2019-02-02T09:42:51.654Z,18.80
2019-02-02T09:43:52.786Z,18.77
2019-02-02T09:44:54.054Z,18.84
2019-02-02T09:45:55.191Z,18.83
2019-02-02T09:46:56.328Z,18.82
2019-02-02T09:47:57.451Z,18.83
2019-02-02T09:48:58.585Z,18.79
2019-02-02T09:49:59.833Z,18.79
2019-02-02T09:51:00.949Z,18.82
2019-02-02T09:52:02.161Z,18.84
2019-02-02T09:53:03.574Z,18.82
2019-02-02T09:54:04.693Z,18.84
2019-02-02T09:55:12.047Z,18.80
2019-02-02T09:56:13.180Z,18.81
2019-02-02T09:57:17.066Z,18.85
2019-02-02T09:58:17.330Z,18.83
2019-02-02T09:59:18.449Z,18.87
2019-02-02T10:00:22.853Z,18.90
2019-02-02T10:01:27.749Z,18.87
2019-02-02T10:02:27.259Z,18.91
2019-02-02T10:03:28.425Z,18.90
2019-02-02T10:04:29.659Z,18.90
2019-02-02T10:05:30.895Z,18.91
2019-02-02T10:06:32.026Z,18.88
2019-02-02T10:07:33.154Z,18.92
2019-02-02T10:08:34.282Z,18.92
2019-02-02T10:09:35.406Z,18.93
2019-02-02T10:10:36.545Z,18.92
2019-02-02T10:11:38.017Z,18.88
2019-02-02T10:12:39.131Z,18.90
2019-02-02T10:13:40.253Z,18.86
2019-02-02T10:14:41.380Z,18.87
2019-02-02T10:15:42.519Z,18.88
2019-02-02T10:16:43.653Z,18.88
2019-02-02T10:17:44.806Z,18.84
2019-02-02T10:18:45.934Z,18.82
2019-02-02T10:19:47.064Z,18.86
2019-02-02T10:20:48.202Z,18.89
2019-02-02T10:21:49.815Z,18.86
2019-02-02T10:22:51.358Z,18.97
2019-02-02T10:23:52.618Z,18.94
2019-02-02T10:24:53.926Z,18.93
2019-02-02T10:25:55.173Z,18.96
2019-02-02T10:26:56.306Z,18.98
2019-02-02T10:27:57.618Z,19.01
2019-02-02T10:28:58.745Z,19.00
2019-02-02T10:29:59.869Z,19.00
2019-02-02T10:31:01.115Z,19.09
2019-02-02T10:32:02.337Z,19.08
2019-02-02T10:33:03.747Z,19.07
2019-02-02T10:34:04.885Z,19.08
2019-02-02T10:35:06.007Z,19.08
2019-02-02T10:36:07.149Z,19.04
2019-02-02T10:37:08.370Z,19.09
2019-02-02T10:38:09.626Z,19.18
2019-02-02T10:39:10.826Z,19.14
2019-02-02T10:40:13.553Z,19.13
2019-02-02T10:41:14.798Z,19.10
2019-02-02T10:42:16.037Z,19.09
2019-02-02T10:43:17.164Z,19.15
2019-02-02T10:44:18.277Z,19.06
2019-02-02T10:45:19.799Z,19.11
2019-02-02T10:46:20.953Z,19.11
2019-02-02T10:47:22.065Z,19.09
2019-02-02T10:48:23.191Z,19.00
2019-02-02T10:49:24.422Z,19.07
2019-02-02T10:50:26.049Z,19.08
2019-02-02T10:51:27.289Z,19.08
2019-02-02T10:52:28.415Z,19.03
2019-02-02T10:53:29.544Z,19.06
2019-02-02T10:54:30.679Z,19.09
2019-02-02T10:55:31.801Z,19.09
2019-02-02T10:56:33.041Z,19.09
2019-02-02T10:57:34.272Z,19.05
2019-02-02T10:58:35.488Z,19.06
2019-02-02T10:59:36.619Z,19.08
2019-02-02T11:00:38.342Z,19.07
2019-02-02T11:01:50.520Z,19.08
2019-02-02T11:02:42.631Z,19.09
2019-02-02T11:03:43.862Z,19.09
2019-02-02T11:04:45.006Z,19.05
2019-02-02T11:05:46.237Z,19.04
2019-02-02T11:06:47.624Z,19.04
2019-02-02T11:07:49.005Z,19.04
2019-02-02T11:08:50.337Z,19.04
2019-02-02T11:09:51.659Z,19.03
2019-02-02T11:10:52.888Z,19.05
2019-02-02T11:11:54.262Z,19.01
2019-02-02T11:12:56.178Z,19.10
2019-02-02T11:13:57.614Z,19.12
2019-02-02T11:14:58.848Z,19.12
2019-02-02T11:15:59.961Z,19.13
2019-02-02T11:17:01.153Z,19.08
2019-02-02T11:18:03.095Z,19.04
2019-02-02T11:19:04.370Z,19.08
2019-02-02T11:20:09.242Z,19.04
2019-02-02T11:21:10.392Z,19.09
2019-02-02T11:22:11.529Z,19.14
2019-02-02T11:23:12.738Z,19.12
2019-02-02T11:24:13.864Z,19.05
2019-02-02T11:25:14.984Z,19.04
2019-02-02T11:26:16.277Z,19.02
2019-02-02T11:27:17.568Z,19.05
2019-02-02T11:28:18.951Z,19.10
2019-02-02T11:29:20.279Z,19.11
2019-02-02T11:30:22.317Z,19.08
2019-02-02T11:31:23.529Z,19.07
2019-02-02T11:32:24.695Z,19.07
2019-02-02T11:33:25.805Z,19.06
2019-02-02T11:34:26.935Z,19.00
2019-02-02T11:35:28.053Z,18.96
2019-02-02T11:36:29.177Z,18.99
2019-02-02T11:37:30.321Z,19.03
2019-02-02T11:38:31.429Z,19.00
2019-02-02T11:39:32.546Z,18.96
2019-02-02T11:40:34.417Z,18.97
2019-02-02T11:41:35.704Z,19.00
2019-02-02T11:42:36.835Z,19.03
2019-02-02T11:43:37.962Z,19.03
2019-02-02T11:44:39.264Z,18.99
2019-02-02T11:45:40.387Z,19.04
2019-02-02T11:46:41.514Z,19.06
2019-02-02T11:47:42.763Z,19.05
2019-02-02T11:48:43.894Z,19.02
2019-02-02T11:49:45.020Z,19.03
2019-02-02T11:50:46.143Z,19.06
2019-02-02T11:51:47.253Z,19.01
2019-02-02T11:52:48.595Z,19.02
2019-02-02T11:53:49.833Z,19.07
2019-02-02T11:54:50.946Z,19.02
2019-02-02T11:55:52.073Z,19.03
2019-02-02T11:56:53.197Z,19.04
2019-02-02T11:57:54.660Z,19.06
2019-02-02T11:58:55.768Z,19.06
2019-02-02T11:59:57.001Z,19.07
2019-02-02T12:00:58.221Z,19.05
2019-02-02T12:01:59.351Z,19.14
2019-02-02T12:03:00.490Z,19.15
2019-02-02T12:04:01.611Z,19.16
2019-02-02T12:05:04.736Z,19.23
2019-02-02T12:06:05.859Z,19.23
2019-02-02T12:07:06.985Z,19.18
2019-02-02T12:08:08.222Z,19.21
2019-02-02T12:09:09.346Z,19.20
2019-02-02T12:10:13.975Z,19.24
2019-02-02T12:11:15.097Z,19.26
2019-02-02T12:12:16.237Z,19.25
2019-02-02T12:13:17.396Z,19.24
2019-02-02T12:14:18.522Z,19.24
2019-02-02T12:15:19.772Z,19.27
2019-02-02T12:16:20.878Z,19.30
2019-02-02T12:17:21.992Z,19.33
2019-02-02T12:18:23.164Z,19.33
2019-02-02T12:19:24.350Z,19.37
2019-02-02T12:20:25.471Z,19.36
2019-02-02T12:21:26.585Z,19.27
2019-02-02T12:22:27.716Z,19.28
2019-02-02T12:23:28.848Z,19.28
2019-02-02T12:24:29.973Z,19.31
2019-02-02T12:25:31.097Z,19.33
2019-02-02T12:26:32.219Z,19.33
2019-02-02T12:27:33.441Z,19.32
2019-02-02T12:28:34.585Z,19.28
2019-02-02T12:29:35.702Z,19.27
2019-02-02T12:30:36.821Z,19.29
2019-02-02T12:31:37.949Z,19.34
2019-02-02T12:32:39.074Z,19.31
2019-02-02T12:33:40.209Z,19.23
2019-02-02T12:34:41.335Z,19.30
2019-02-02T12:35:42.472Z,19.21
2019-02-02T12:36:43.601Z,19.21
2019-02-02T12:37:44.722Z,19.23
2019-02-02T12:38:45.854Z,19.22
2019-02-02T12:39:46.971Z,19.26
2019-02-02T12:40:48.090Z,19.30
2019-02-02T12:41:49.213Z,19.30
2019-02-02T12:42:50.433Z,19.28
2019-02-02T12:43:51.590Z,19.20
2019-02-02T12:44:52.706Z,19.29
2019-02-02T12:45:53.832Z,19.28
2019-02-02T12:46:55.483Z,19.27
2019-02-02T12:47:56.741Z,19.21
2019-02-02T12:48:57.860Z,19.20
2019-02-02T12:49:59.019Z,19.24
2019-02-02T12:51:00.311Z,19.22
2019-02-02T12:52:01.436Z,19.22
2019-02-02T12:53:02.963Z,19.24
2019-02-02T12:54:04.225Z,19.26
2019-02-02T12:55:07.442Z,19.28
2019-02-02T12:56:08.571Z,19.27
2019-02-02T12:57:09.696Z,19.27
2019-02-02T12:58:10.825Z,19.24
2019-02-02T12:59:11.965Z,19.24
2019-02-02T13:00:17.997Z,19.23
2019-02-02T13:01:19.259Z,19.28
2019-02-02T13:02:20.482Z,19.23
2019-02-02T13:03:21.713Z,19.23
2019-02-02T13:04:22.973Z,19.29
2019-02-02T13:05:24.598Z,19.30
2019-02-02T13:06:25.735Z,19.33
2019-02-02T13:07:26.857Z,19.31
2019-02-02T13:08:27.985Z,19.31
2019-02-02T13:09:29.125Z,19.28
2019-02-02T13:10:30.453Z,19.27